sensor_id;sensor_type;location;lat;lon;timestamp;pressure;altitude;pressure_sealevel;temperature;humidity
11212;BME280;5663;50.864;12.096;2023-04-29T02:24:09;98877.47;;;12.18;78.39
11212;BME280;5663;50.864;12.096;2023-04-29T02:26:38;98872.06;;;12.21;78.49
11212;BME280;5663;50.864;12.096;2023-04-29T02:29:07;98878.94;;;12.22;78.95
11212;BME280;5663;50.864;12.096;2023-04-29T02:31:36;98881.53;;;12.22;78.83
11212;BME280;5663;50.864;12.096;2023-04-29T02:34:04;98883.97;;;12.25;79.08
11212;BME280;5663;50.864;12.096;2023-04-29T02:36:33;98883.97;;;12.25;79.64
11212;BME280;5663;50.864;12.096;2023-04-29T02:39:01;98881.25;;;12.27;79.66
11212;BME280;5663;50.864;12.096;2023-04-29T02:41:35;98872.38;;;12.29;79.76
11212;BME280;5663;50.864;12.096;2023-04-29T02:44:04;98873.09;;;12.31;80.02
11212;BME280;5663;50.864;12.096;2023-04-29T02:46:33;98873.84;;;12.33;80.07
11212;BME280;5663;50.864;12.096;2023-04-29T02:49:03;98856.00;;;12.27;80.00
11212;BME280;5663;50.864;12.096;2023-04-29T02:51:33;98863.19;;;12.37;80.35
11212;BME280;5663;50.864;12.096;2023-04-29T02:54:09;98854.78;;;12.33;80.04
11212;BME280;5663;50.864;12.096;2023-04-29T02:56:43;98874.19;;;12.42;79.83
11212;BME280;5663;50.864;12.096;2023-04-29T02:59:12;98861.66;;;12.34;79.83
11212;BME280;5663;50.864;12.096;2023-04-29T03:01:44;98878.44;;;12.43;79.49
11212;BME280;5663;50.864;12.096;2023-04-29T03:04:13;98839.53;;;12.27;79.67
11212;BME280;5663;50.864;12.096;2023-04-29T03:06:42;98867.19;;;12.42;79.26
11212;BME280;5663;50.864;12.096;2023-04-29T03:09:11;98867.28;;;12.41;79.41
11212;BME280;5663;50.864;12.096;2023-04-29T03:11:42;98866.66;;;12.37;79.47
11212;BME280;5663;50.864;12.096;2023-04-29T03:14:11;98865.81;;;12.37;79.71
11212;BME280;5663;50.864;12.096;2023-04-29T03:16:40;98866.75;;;12.36;79.62
11212;BME280;5663;50.864;12.096;2023-04-29T03:19:10;98871.25;;;12.33;79.78
11212;BME280;5663;50.864;12.096;2023-04-29T03:21:39;98868.66;;;12.33;79.82
11212;BME280;5663;50.864;12.096;2023-04-29T05:25:52;98914.72;;;13.11;82.48
11212;BME280;5663;50.864;12.096;2023-04-29T05:28:21;98940.00;;;13.36;83.01
11212;BME280;5663;50.864;12.096;2023-04-29T05:30:50;98940.19;;;13.46;83.21
11212;BME280;5663;50.864;12.096;2023-04-29T05:33:21;98941.22;;;13.56;83.04
11212;BME280;5663;50.864;12.096;2023-04-29T05:35:52;98942.44;;;13.63;83.26
11212;BME280;5663;50.864;12.096;2023-04-29T05:38:24;98945.78;;;13.78;83.47
11212;BME280;5663;50.864;12.096;2023-04-29T05:40:57;98929.63;;;13.84;83.50
11212;BME280;5663;50.864;12.096;2023-04-29T05:43:27;98948.19;;;14.05;83.67
11212;BME280;5663;50.864;12.096;2023-04-29T05:45:59;98951.75;;;14.28;83.71
11212;BME280;5663;50.864;12.096;2023-04-29T05:48:28;98943.94;;;14.39;83.10
11212;BME280;5663;50.864;12.096;2023-04-29T05:50:59;98934.00;;;14.44;82.87
11212;BME280;5663;50.864;12.096;2023-04-29T05:53:29;98927.50;;;14.50;82.61
11212;BME280;5663;50.864;12.096;2023-04-29T05:56:02;98948.84;;;14.68;82.37
11212;BME280;5663;50.864;12.096;2023-04-29T05:58:38;98938.06;;;14.72;81.91
11212;BME280;5663;50.864;12.096;2023-04-29T06:01:07;98955.94;;;14.90;81.88
11212;BME280;5663;50.864;12.096;2023-04-29T06:03:37;98911.25;;;14.80;81.41
11212;BME280;5663;50.864;12.096;2023-04-29T06:06:09;98940.50;;;15.09;80.99
11212;BME280;5663;50.864;12.096;2023-04-29T06:08:39;98955.88;;;15.25;80.17
11212;BME280;5663;50.864;12.096;2023-04-29T06:11:08;98963.59;;;15.26;79.88
11212;BME280;5663;50.864;12.096;2023-04-29T06:13:39;98960.75;;;15.30;79.57
11212;BME280;5663;50.864;12.096;2023-04-29T06:16:08;98965.63;;;15.34;79.39
11212;BME280;5663;50.864;12.096;2023-04-29T06:18:38;98969.56;;;15.40;79.02
11212;BME280;5663;50.864;12.096;2023-04-29T06:21:08;98961.59;;;15.41;78.45
11212;BME280;5663;50.864;12.096;2023-04-29T06:23:36;98965.75;;;15.44;77.87
11212;BME280;5663;50.864;12.096;2023-04-29T06:26:04;98974.34;;;15.46;77.41
11212;BME280;5663;50.864;12.096;2023-04-29T06:28:35;98977.19;;;15.43;77.49
11212;BME280;5663;50.864;12.096;2023-04-29T06:31:05;98982.66;;;15.51;77.17
11212;BME280;5663;50.864;12.096;2023-04-29T06:33:36;98977.31;;;15.52;76.87
11212;BME280;5663;50.864;12.096;2023-04-29T06:36:05;98984.09;;;15.55;76.39
11212;BME280;5663;50.864;12.096;2023-04-29T06:38:34;98989.09;;;15.58;76.08
11212;BME280;5663;50.864;12.096;2023-04-29T06:41:11;98983.88;;;15.58;75.86
11212;BME280;5663;50.864;12.096;2023-04-29T06:43:41;98988.88;;;15.61;75.92
11212;BME280;5663;50.864;12.096;2023-04-29T06:46:14;98986.66;;;15.68;75.66
11212;BME280;5663;50.864;12.096;2023-04-29T06:48:46;98993.19;;;15.73;75.56
11212;BME280;5663;50.864;12.096;2023-04-29T06:51:15;98998.22;;;15.76;75.23
11212;BME280;5663;50.864;12.096;2023-04-29T06:53:43;99001.53;;;15.79;75.08
11212;BME280;5663;50.864;12.096;2023-04-29T06:56:13;98994.84;;;15.74;74.81
11212;BME280;5663;50.864;12.096;2023-04-29T06:58:45;99005.34;;;15.74;74.49
11212;BME280;5663;50.864;12.096;2023-04-29T07:01:17;99002.03;;;15.72;74.18
11212;BME280;5663;50.864;12.096;2023-04-29T07:03:48;99001.53;;;15.67;74.19
11212;BME280;5663;50.864;12.096;2023-04-29T07:06:19;99002.47;;;15.66;73.97
11212;BME280;5663;50.864;12.096;2023-04-29T07:08:46;99007.84;;;15.65;73.59
11212;BME280;5663;50.864;12.096;2023-04-29T07:11:15;99012.97;;;15.66;73.72
11212;BME280;5663;50.864;12.096;2023-04-29T07:13:57;99014.63;;;15.67;73.54
11212;BME280;5663;50.864;12.096;2023-04-29T07:16:28;99021.56;;;15.68;73.31
11212;BME280;5663;50.864;12.096;2023-04-29T07:18:58;99027.75;;;15.67;72.84
11212;BME280;5663;50.864;12.096;2023-04-29T07:21:28;99020.09;;;15.64;72.88
11212;BME280;5663;50.864;12.096;2023-04-29T07:23:58;99014.50;;;15.58;72.41
11212;BME280;5663;50.864;12.096;2023-04-29T10:18:13;99192.13;;;18.29;58.97
11212;BME280;5663;50.864;12.096;2023-04-29T10:20:47;99197.47;;;18.17;58.19
11212;BME280;5663;50.864;12.096;2023-04-29T10:23:19;99212.94;;;18.11;57.95
11212;BME280;5663;50.864;12.096;2023-04-29T11:27:58;99286.88;;;16.31;60.28
11212;BME280;5663;50.864;12.096;2023-04-29T11:30:28;99283.41;;;16.19;60.70
11212;BME280;5663;50.864;12.096;2023-04-29T11:32:58;99302.25;;;16.13;60.78
11212;BME280;5663;50.864;12.096;2023-04-29T11:35:26;99300.31;;;16.04;60.44
11212;BME280;5663;50.864;12.096;2023-04-29T11:37:53;99266.84;;;15.72;60.36
11212;BME280;5663;50.864;12.096;2023-04-29T11:40:21;99310.50;;;15.85;60.62
11212;BME280;5663;50.864;12.096;2023-04-29T11:42:49;99278.63;;;15.54;60.68
11212;BME280;5663;50.864;12.096;2023-04-29T11:45:19;99311.84;;;15.66;60.96
11212;BME280;5663;50.864;12.096;2023-04-29T11:47:58;99313.94;;;15.61;61.26
11212;BME280;5663;50.864;12.096;2023-04-29T11:50:32;99289.25;;;15.40;60.99
11212;BME280;5663;50.864;12.096;2023-04-29T11:53:10;99282.28;;;15.27;61.24
11212;BME280;5663;50.864;12.096;2023-04-29T11:55:41;99297.06;;;15.28;61.61
11212;BME280;5663;50.864;12.096;2023-04-29T11:58:13;99289.75;;;15.21;61.54
11212;BME280;5663;50.864;12.096;2023-04-29T12:00:43;99313.00;;;15.25;61.60
11212;BME280;5663;50.864;12.096;2023-04-29T12:03:12;99332.06;;;15.40;61.89
11212;BME280;5663;50.864;12.096;2023-04-29T12:05:45;99339.78;;;15.42;62.04
11212;BME280;5663;50.864;12.096;2023-04-29T12:08:13;99332.34;;;15.36;62.06
11212;BME280;5663;50.864;12.096;2023-04-29T12:10:42;99348.81;;;15.38;62.23
11212;BME280;5663;50.864;12.096;2023-04-29T12:13:11;99346.31;;;15.36;62.31
11212;BME280;5663;50.864;12.096;2023-04-29T12:15:49;99352.59;;;15.34;62.42
11212;BME280;5663;50.864;12.096;2023-04-29T12:18:21;99350.94;;;15.33;62.50
11212;BME280;5663;50.864;12.096;2023-04-29T12:20:55;99352.16;;;15.40;62.33
11212;BME280;5663;50.864;12.096;2023-04-29T12:24:00;99359.47;;;15.47;62.25
11212;BME280;5663;50.864;12.096;2023-04-29T12:26:34;99361.78;;;15.52;62.22
11212;BME280;5663;50.864;12.096;2023-04-29T12:29:03;99340.00;;;15.39;61.84
11212;BME280;5663;50.864;12.096;2023-04-29T12:31:35;99352.22;;;15.51;61.43
11212;BME280;5663;50.864;12.096;2023-04-29T12:34:07;99352.31;;;15.62;61.67
11212;BME280;5663;50.864;12.096;2023-04-29T12:36:44;99366.47;;;15.72;61.91
11212;BME280;5663;50.864;12.096;2023-04-29T12:39:19;99347.28;;;15.72;61.56
11212;BME280;5663;50.864;12.096;2023-04-29T12:41:58;99371.94;;;15.93;60.88
11212;BME280;5663;50.864;12.096;2023-04-29T12:44:40;99361.88;;;15.87;60.41
11212;BME280;5663;50.864;12.096;2023-04-29T12:47:13;99379.25;;;16.01;60.42
11212;BME280;5663;50.864;12.096;2023-04-29T12:49:49;99377.25;;;16.05;60.32
11212;BME280;5663;50.864;12.096;2023-04-29T12:52:19;99385.94;;;16.05;59.65
11212;BME280;5663;50.864;12.096;2023-04-29T12:54:55;99389.28;;;16.07;59.56
11212;BME280;5663;50.864;12.096;2023-04-29T12:57:29;99393.91;;;16.04;59.48
11212;BME280;5663;50.864;12.096;2023-04-29T13:00:13;99391.19;;;16.05;59.96
11212;BME280;5663;50.864;12.096;2023-04-29T13:02:49;99390.97;;;16.08;59.18
11212;BME280;5663;50.864;12.096;2023-04-29T13:05:21;99394.09;;;16.13;58.98
11212;BME280;5663;50.864;12.096;2023-04-29T13:07:58;99380.00;;;16.14;58.80
11212;BME280;5663;50.864;12.096;2023-04-29T13:10:34;99386.34;;;16.23;59.09
11212;BME280;5663;50.864;12.096;2023-04-29T13:13:06;99386.41;;;16.34;58.46
11212;BME280;5663;50.864;12.096;2023-04-29T13:15:53;99377.25;;;16.51;58.67
11212;BME280;5663;50.864;12.096;2023-04-29T13:18:52;99389.97;;;16.68;58.19
11212;BME280;5663;50.864;12.096;2023-04-29T13:21:54;99386.53;;;16.79;58.21
11212;BME280;5663;50.864;12.096;2023-04-29T13:24:51;99380.00;;;16.85;58.04
11212;BME280;5663;50.864;12.096;2023-04-29T15:27:24;99456.44;;;16.34;55.21
11212;BME280;5663;50.864;12.096;2023-04-29T15:29:51;99467.28;;;16.29;54.17
11212;BME280;5663;50.864;12.096;2023-04-29T15:32:25;99459.97;;;16.21;53.85
11212;BME280;5663;50.864;12.096;2023-04-29T15:34:56;99468.78;;;16.20;53.97
11212;BME280;5663;50.864;12.096;2023-04-29T15:37:24;99438.91;;;16.10;53.95
11212;BME280;5663;50.864;12.096;2023-04-29T15:39:53;99459.41;;;16.05;54.21
11212;BME280;5663;50.864;12.096;2023-04-29T15:42:21;99472.81;;;16.13;54.46
11212;BME280;5663;50.864;12.096;2023-04-29T15:44:53;99474.59;;;16.13;54.36
11212;BME280;5663;50.864;12.096;2023-04-29T15:47:22;99482.47;;;16.13;54.20
11212;BME280;5663;50.864;12.096;2023-04-29T15:49:53;99473.00;;;16.10;53.81
11212;BME280;5663;50.864;12.096;2023-04-29T15:52:21;99471.56;;;16.06;54.86
11212;BME280;5663;50.864;12.096;2023-04-29T15:54:49;99484.97;;;16.14;54.82
11212;BME280;5663;50.864;12.096;2023-04-29T15:57:17;99485.78;;;16.15;54.97
11212;BME280;5663;50.864;12.096;2023-04-29T15:59:46;99478.53;;;16.18;55.10
11212;BME280;5663;50.864;12.096;2023-04-29T16:02:15;99467.69;;;16.12;55.13
11212;BME280;5663;50.864;12.096;2023-04-29T16:04:45;99483.78;;;16.18;54.99
11212;BME280;5663;50.864;12.096;2023-04-29T16:07:14;99478.88;;;16.14;55.07
11212;BME280;5663;50.864;12.096;2023-04-29T16:09:43;99494.00;;;16.10;55.25
11212;BME280;5663;50.864;12.096;2023-04-29T16:12:15;99498.53;;;16.08;55.14
11212;BME280;5663;50.864;12.096;2023-04-29T16:14:44;99488.59;;;16.00;55.03
11212;BME280;5663;50.864;12.096;2023-04-29T16:17:15;99501.59;;;16.02;55.38
11212;BME280;5663;50.864;12.096;2023-04-29T16:19:44;99503.50;;;16.00;55.57
11212;BME280;5663;50.864;12.096;2023-04-29T16:22:13;99511.91;;;15.92;55.76
11212;BME280;5663;50.864;12.096;2023-04-29T16:24:43;99510.44;;;15.88;55.85
11212;BME280;5663;50.864;12.096;2023-04-29T17:29:43;99567.94;;;15.53;57.07
11212;BME280;5663;50.864;12.096;2023-04-29T17:32:15;99561.22;;;15.49;57.10
11212;BME280;5663;50.864;12.096;2023-04-29T17:34:52;99561.63;;;15.43;57.15
11212;BME280;5663;50.864;12.096;2023-04-29T17:37:24;99570.88;;;15.48;57.17
11212;BME280;5663;50.864;12.096;2023-04-29T17:39:54;99570.88;;;15.48;57.21
11212;BME280;5663;50.864;12.096;2023-04-29T17:42:25;99573.69;;;15.45;57.14
11212;BME280;5663;50.864;12.096;2023-04-29T17:44:56;99551.34;;;15.27;57.22
11212;BME280;5663;50.864;12.096;2023-04-29T17:47:30;99585.00;;;15.46;57.10
11212;BME280;5663;50.864;12.096;2023-04-29T17:50:02;99582.38;;;15.46;57.33
11212;BME280;5663;50.864;12.096;2023-04-29T17:52:33;99571.78;;;15.35;57.43
11212;BME280;5663;50.864;12.096;2023-04-29T17:55:04;99586.56;;;15.36;57.70
11212;BME280;5663;50.864;12.096;2023-04-29T17:57:32;99584.69;;;15.38;57.69
11212;BME280;5663;50.864;12.096;2023-04-29T18:00:17;99589.94;;;15.38;57.97
11212;BME280;5663;50.864;12.096;2023-04-29T18:02:46;99583.94;;;15.36;58.22
11212;BME280;5663;50.864;12.096;2023-04-29T18:05:14;99592.03;;;15.33;58.41
11212;BME280;5663;50.864;12.096;2023-04-29T18:07:43;99586.97;;;15.30;58.51
11212;BME280;5663;50.864;12.096;2023-04-29T18:10:13;99589.72;;;15.28;58.36
11212;BME280;5663;50.864;12.096;2023-04-29T18:12:41;99592.41;;;15.26;58.44
11212;BME280;5663;50.864;12.096;2023-04-29T18:15:11;99594.31;;;15.24;58.46
11212;BME280;5663;50.864;12.096;2023-04-29T18:17:41;99599.75;;;15.21;58.75
11212;BME280;5663;50.864;12.096;2023-04-29T18:20:09;99604.25;;;15.19;58.93
11212;BME280;5663;50.864;12.096;2023-04-29T18:22:38;99598.91;;;15.08;58.72
11212;BME280;5663;50.864;12.096;2023-04-29T18:25:06;99590.69;;;15.00;58.84
11212;BME280;5663;50.864;12.096;2023-04-29T18:27:34;99610.09;;;15.10;58.64
11212;BME280;5663;50.864;12.096;2023-04-29T19:28:42;99684.59;;;14.08;63.76
11212;BME280;5663;50.864;12.096;2023-04-29T19:31:11;99681.13;;;14.07;63.91
11212;BME280;5663;50.864;12.096;2023-04-29T19:33:40;99681.41;;;14.02;64.17
11212;BME280;5663;50.864;12.096;2023-04-29T19:36:11;99684.13;;;14.01;64.45
11212;BME280;5663;50.864;12.096;2023-04-29T19:38:40;99687.03;;;13.96;64.49
11212;BME280;5663;50.864;12.096;2023-04-29T19:41:10;99642.28;;;13.72;64.89
11212;BME280;5663;50.864;12.096;2023-04-29T19:43:42;99672.91;;;13.85;64.71
11212;BME280;5663;50.864;12.096;2023-04-29T19:46:13;99677.75;;;13.91;64.96
11212;BME280;5663;50.864;12.096;2023-04-29T19:48:42;99683.00;;;13.91;64.78
11212;BME280;5663;50.864;12.096;2023-04-29T19:51:11;99685.88;;;13.86;65.00
11212;BME280;5663;50.864;12.096;2023-04-29T19:53:40;99681.66;;;13.84;64.92
11212;BME280;5663;50.864;12.096;2023-04-29T19:56:09;99673.72;;;13.71;65.18
11212;BME280;5663;50.864;12.096;2023-04-29T19:58:39;99682.03;;;13.77;65.39
11212;BME280;5663;50.864;12.096;2023-04-29T20:01:12;99687.16;;;13.79;65.70
11212;BME280;5663;50.864;12.096;2023-04-29T20:03:49;99691.72;;;13.75;65.92
11212;BME280;5663;50.864;12.096;2023-04-29T20:06:23;99685.94;;;13.70;66.01
11212;BME280;5663;50.864;12.096;2023-04-29T20:08:53;99687.78;;;13.68;66.36
11212;BME280;5663;50.864;12.096;2023-04-29T20:11:23;99685.44;;;13.64;66.34
11212;BME280;5663;50.864;12.096;2023-04-29T20:13:52;99689.00;;;13.63;66.29
11212;BME280;5663;50.864;12.096;2023-04-29T20:16:21;99694.13;;;13.64;66.05
11212;BME280;5663;50.864;12.096;2023-04-29T20:18:50;99685.00;;;13.57;66.27
11212;BME280;5663;50.864;12.096;2023-04-29T20:21:20;99696.94;;;13.61;66.02
11212;BME280;5663;50.864;12.096;2023-04-29T20:23:49;99699.56;;;13.61;66.27
11212;BME280;5663;50.864;12.096;2023-04-29T20:26:18;99699.63;;;13.60;66.34
11212;BME280;5663;50.864;12.096;2023-04-29T21:31:26;99739.63;;;13.14;68.21
11212;BME280;5663;50.864;12.096;2023-04-29T21:33:57;99744.19;;;13.11;68.30
11212;BME280;5663;50.864;12.096;2023-04-29T21:36:27;99731.72;;;13.00;68.46
11212;BME280;5663;50.864;12.096;2023-04-29T21:38:58;99734.00;;;13.06;68.52
11212;BME280;5663;50.864;12.096;2023-04-29T21:41:29;99743.50;;;13.07;68.70
11212;BME280;5663;50.864;12.096;2023-04-29T21:44:01;99734.94;;;13.05;68.69
11212;BME280;5663;50.864;12.096;2023-04-29T21:46:36;99734.16;;;13.03;69.17
11212;BME280;5663;50.864;12.096;2023-04-29T21:49:06;99731.53;;;13.03;68.85
11212;BME280;5663;50.864;12.096;2023-04-29T21:51:39;99728.19;;;13.01;68.60
11212;BME280;5663;50.864;12.096;2023-04-29T21:54:08;99710.50;;;12.90;68.76
11212;BME280;5663;50.864;12.096;2023-04-29T21:56:38;99740.47;;;12.99;68.73
11212;BME280;5663;50.864;12.096;2023-04-29T21:59:08;99729.19;;;12.98;68.94
11212;BME280;5663;50.864;12.096;2023-04-29T22:01:39;99730.19;;;12.96;69.49
11212;BME280;5663;50.864;12.096;2023-04-29T22:04:16;99727.69;;;12.94;69.36
11212;BME280;5663;50.864;12.096;2023-04-29T22:06:45;99742.50;;;12.94;69.36
11212;BME280;5663;50.864;12.096;2023-04-29T22:09:17;99741.72;;;12.92;69.16
11212;BME280;5663;50.864;12.096;2023-04-29T22:11:46;99737.44;;;12.91;69.46
11212;BME280;5663;50.864;12.096;2023-04-29T22:14:16;99746.22;;;12.90;69.47
11212;BME280;5663;50.864;12.096;2023-04-29T22:16:47;99737.59;;;12.88;69.53
11212;BME280;5663;50.864;12.096;2023-04-29T22:19:15;99741.16;;;12.87;69.57
11212;BME280;5663;50.864;12.096;2023-04-29T22:21:45;99743.75;;;12.87;69.65
11212;BME280;5663;50.864;12.096;2023-04-29T22:24:14;99736.09;;;12.83;69.81
11212;BME280;5663;50.864;12.096;2023-04-29T22:26:42;99739.47;;;12.86;69.78
11212;BME280;5663;50.864;12.096;2023-04-29T23:31:15;99784.00;;;11.63;69.98
11212;BME280;5663;50.864;12.096;2023-04-29T23:33:46;99778.34;;;11.54;70.18
11212;BME280;5663;50.864;12.096;2023-04-29T23:36:15;99767.94;;;11.35;70.01
11212;BME280;5663;50.864;12.096;2023-04-29T23:38:43;99784.19;;;11.41;69.90
11212;BME280;5663;50.864;12.096;2023-04-29T23:41:12;99790.63;;;11.33;70.01
11212;BME280;5663;50.864;12.096;2023-04-29T23:43:40;99789.22;;;11.26;69.85
11212;BME280;5663;50.864;12.096;2023-04-29T23:46:13;99793.16;;;11.16;69.95
11212;BME280;5663;50.864;12.096;2023-04-29T23:48:43;99800.34;;;11.11;69.94
11212;BME280;5663;50.864;12.096;2023-04-29T23:51:13;99790.28;;;11.03;69.79
11212;BME280;5663;50.864;12.096;2023-04-29T23:53:42;99794.03;;;10.98;69.88
11212;BME280;5663;50.864;12.096;2023-04-29T23:56:11;99791.06;;;10.87;69.86
11212;BME280;5663;50.864;12.096;2023-04-29T23:58:39;99799.91;;;10.82;69.71
